createdAt,value
2022-12-18T00:01:30.332Z,-5.30
2022-12-18T00:03:57.762Z,-5.40
2022-12-18T00:06:27.096Z,-5.40
2022-12-18T00:08:55.394Z,-5.40
2022-12-18T00:11:24.830Z,-5.40
2022-12-18T00:13:52.649Z,-5.50
2022-12-18T00:16:22.679Z,-5.40
2022-12-18T00:18:54.968Z,-5.40
2022-12-18T00:21:22.267Z,-5.40
2022-12-18T00:23:51.870Z,-5.30
2022-12-18T00:26:24.450Z,-5.40
2022-12-18T00:28:52.536Z,-5.40
2022-12-18T00:31:22.756Z,-5.40
2022-12-18T00:33:49.796Z,-5.50
2022-12-18T00:36:28.237Z,-5.50
2022-12-18T00:38:57.098Z,-5.50
2022-12-18T00:41:43.705Z,-5.50
2022-12-18T00:44:13.564Z,-5.50
2022-12-18T00:46:41.127Z,-5.50
2022-12-18T00:49:08.062Z,-5.50
2022-12-18T00:51:35.070Z,-5.40
2022-12-18T00:54:02.557Z,-5.50
2022-12-18T00:56:29.540Z,-5.50
2022-12-18T00:58:56.448Z,-5.50
2022-12-18T01:01:23.619Z,-5.50
2022-12-18T01:03:50.637Z,-5.50
2022-12-18T01:06:18.003Z,-5.50
2022-12-18T01:08:45.629Z,-5.50
2022-12-18T01:11:18.479Z,-5.50
2022-12-18T01:13:45.629Z,-5.50
2022-12-18T01:16:13.791Z,-5.60
2022-12-18T01:18:41.004Z,-5.60
2022-12-18T01:21:13.427Z,-5.60
2022-12-18T01:23:41.176Z,-5.60
2022-12-18T01:26:10.300Z,-5.60
2022-12-18T01:28:37.722Z,-5.50
2022-12-18T01:31:21.976Z,-5.50
2022-12-18T01:33:49.499Z,-5.50
2022-12-18T01:36:24.689Z,-5.40
2022-12-18T01:38:53.146Z,-5.50
2022-12-18T01:41:23.122Z,-5.50
2022-12-18T01:43:58.780Z,-5.50
2022-12-18T01:46:27.730Z,-5.40
2022-12-18T01:49:02.985Z,-5.40
2022-12-18T01:51:31.726Z,-5.40
2022-12-18T01:54:00.368Z,-5.30
2022-12-18T01:56:27.621Z,-5.30
2022-12-18T01:59:04.911Z,-5.30
2022-12-18T02:01:33.630Z,-5.30
2022-12-18T02:04:25.078Z,-5.30
2022-12-18T02:07:07.054Z,-5.30
2022-12-18T02:09:46.370Z,-5.30
2022-12-18T02:12:26.178Z,-5.30
2022-12-18T02:15:32.757Z,-5.30
2022-12-18T02:18:33.531Z,-5.30
2022-12-18T02:21:25.333Z,-5.40
2022-12-18T02:24:18.870Z,-5.40
2022-12-18T02:26:56.280Z,-5.40
2022-12-18T02:29:30.172Z,-5.30
2022-12-18T02:32:01.088Z,-5.30
2022-12-18T02:34:35.353Z,-5.30
2022-12-18T02:37:05.624Z,-5.40
2022-12-18T02:39:34.542Z,-5.40
2022-12-18T02:42:08.629Z,-5.30
2022-12-18T02:44:42.455Z,-5.30
2022-12-18T02:47:12.888Z,-5.40
2022-12-18T02:50:03.530Z,-5.30
2022-12-18T02:52:37.213Z,-5.40
2022-12-18T02:55:11.756Z,-5.40
2022-12-18T02:57:47.193Z,-5.40
2022-12-18T03:00:20.330Z,-5.30
2022-12-18T03:02:54.428Z,-5.30
2022-12-18T03:05:29.138Z,-5.40
2022-12-18T03:08:13.477Z,-5.30
2022-12-18T03:10:46.560Z,-5.40
2022-12-18T03:13:21.496Z,-5.30
2022-12-18T03:15:56.394Z,-5.30
2022-12-18T03:18:27.571Z,-5.30
2022-12-18T03:20:59.097Z,-5.30
2022-12-18T03:23:33.489Z,-5.30
2022-12-18T03:26:07.415Z,-5.30
2022-12-18T03:28:39.878Z,-5.30
2022-12-18T03:31:10.559Z,-5.30
2022-12-18T03:34:02.354Z,-5.30
2022-12-18T03:36:32.151Z,-5.30
2022-12-18T03:38:59.133Z,-5.30
2022-12-18T03:41:52.332Z,-5.20
2022-12-18T03:44:54.062Z,-5.30
2022-12-18T03:47:40.749Z,-5.20
2022-12-18T03:50:35.495Z,-5.20
2022-12-18T03:53:23.415Z,-5.20
2022-12-18T03:55:51.506Z,-5.20
2022-12-18T03:58:21.774Z,-5.20
2022-12-18T04:00:50.609Z,-5.20
2022-12-18T04:03:22.574Z,-5.20
2022-12-18T04:05:56.315Z,-5.20
2022-12-18T04:08:24.235Z,-5.20
2022-12-18T04:10:51.052Z,-5.10
2022-12-18T04:13:25.860Z,-5.10
2022-12-18T04:15:52.900Z,-5.20
2022-12-18T04:18:19.823Z,-5.20
2022-12-18T04:20:46.917Z,-5.20
2022-12-18T04:23:14.827Z,-5.20
2022-12-18T04:25:41.696Z,-5.10
2022-12-18T04:28:08.558Z,-5.10
2022-12-18T04:30:35.532Z,-5.10
2022-12-18T04:33:02.348Z,-5.10
2022-12-18T04:35:29.219Z,-5.10
2022-12-18T04:37:56.035Z,-5.20
2022-12-18T04:40:22.849Z,-5.10
2022-12-18T04:42:49.707Z,-5.10
2022-12-18T04:45:16.649Z,-5.10
2022-12-18T04:47:43.461Z,-5.10
2022-12-18T04:50:10.776Z,-5.10
2022-12-18T04:52:37.730Z,-5.10
2022-12-18T04:55:04.877Z,-5.10
2022-12-18T04:57:31.704Z,-5.10
2022-12-18T04:59:58.522Z,-5.20
2022-12-18T05:02:25.467Z,-5.20
2022-12-18T05:04:52.403Z,-5.20
2022-12-18T05:07:19.250Z,-5.20
2022-12-18T05:09:46.201Z,-5.10
2022-12-18T05:12:13.068Z,-5.10
2022-12-18T05:14:39.900Z,-5.10
2022-12-18T05:17:06.734Z,-5.10
2022-12-18T05:19:33.554Z,-5.10
2022-12-18T05:22:00.466Z,-5.00
2022-12-18T05:24:27.231Z,-5.00
2022-12-18T05:26:54.104Z,-5.00
2022-12-18T05:29:20.932Z,-5.00
2022-12-18T05:31:47.903Z,-5.00
2022-12-18T05:34:14.832Z,-5.10
2022-12-18T05:36:42.042Z,-5.10
2022-12-18T05:39:09.483Z,-5.10
2022-12-18T05:41:36.316Z,-5.10
2022-12-18T05:44:03.207Z,-5.00
2022-12-18T05:46:30.562Z,-5.10
2022-12-18T05:49:01.082Z,-5.00
2022-12-18T05:51:28.392Z,-5.00
2022-12-18T05:53:55.208Z,-5.00
2022-12-18T05:56:23.800Z,-5.00
2022-12-18T05:58:54.038Z,-5.00
2022-12-18T06:01:27.422Z,-5.00
2022-12-18T06:03:55.907Z,-5.10
2022-12-18T06:06:27.983Z,-5.10
2022-12-18T06:08:55.755Z,-5.00
2022-12-18T06:11:25.162Z,-5.10
2022-12-18T06:13:58.242Z,-5.10
2022-12-18T06:16:26.551Z,-5.10
2022-12-18T06:18:53.447Z,-5.10
2022-12-18T06:21:20.806Z,-5.10
2022-12-18T06:23:47.620Z,-5.10
2022-12-18T06:26:14.954Z,-5.10
2022-12-18T06:28:42.180Z,-5.20
2022-12-18T06:31:09.558Z,-5.20
2022-12-18T06:33:37.550Z,-5.20
2022-12-18T06:36:10.554Z,-5.20
2022-12-18T06:38:40.494Z,-5.20
2022-12-18T06:41:09.363Z,-5.20
2022-12-18T06:43:36.348Z,-5.20
2022-12-18T06:46:04.538Z,-5.20
2022-12-18T06:48:31.788Z,-5.20
2022-12-18T06:50:59.091Z,-5.20
2022-12-18T06:53:26.187Z,-5.30
2022-12-18T06:55:53.311Z,-5.30
2022-12-18T06:58:20.157Z,-5.30
2022-12-18T07:00:47.616Z,-5.40
2022-12-18T07:03:14.506Z,-5.40
2022-12-18T07:05:42.100Z,-5.40
2022-12-18T07:08:09.300Z,-5.30
2022-12-18T07:10:47.516Z,-5.30
2022-12-18T07:13:15.077Z,-5.30
2022-12-18T07:15:44.042Z,-5.30
2022-12-18T07:18:11.839Z,-5.30
2022-12-18T07:20:38.616Z,-5.40
2022-12-18T07:23:06.426Z,-5.40
2022-12-18T07:25:36.716Z,-5.50
2022-12-18T07:28:04.168Z,-5.40
2022-12-18T07:30:30.992Z,-5.30
2022-12-18T07:32:57.859Z,-5.20
2022-12-18T07:35:25.317Z,-5.30
2022-12-18T07:37:52.591Z,-5.20
2022-12-18T07:40:19.591Z,-5.20
2022-12-18T07:42:46.421Z,-5.20
2022-12-18T07:45:13.219Z,-5.20
2022-12-18T07:47:42.221Z,-5.20
2022-12-18T07:50:09.661Z,-5.20
2022-12-18T07:52:36.501Z,-5.30
2022-12-18T07:55:03.776Z,-5.20
2022-12-18T08:00:17.684Z,-5.30
2022-12-18T08:02:45.157Z,-5.30
2022-12-18T08:05:12.081Z,-5.30
2022-12-18T08:07:39.354Z,-5.30
2022-12-18T08:10:07.393Z,-5.30
2022-12-18T08:12:34.250Z,-5.30
2022-12-18T08:15:01.176Z,-5.10
2022-12-18T08:17:27.988Z,-5.10
2022-12-18T08:19:54.777Z,-5.10
2022-12-18T08:22:21.584Z,-5.00
2022-12-18T08:24:48.395Z,-5.00
2022-12-18T08:27:30.639Z,-5.10
2022-12-18T08:29:58.208Z,-5.00
2022-12-18T08:32:26.766Z,-5.00
2022-12-18T08:34:53.747Z,-5.10
2022-12-18T08:37:20.613Z,-5.00
2022-12-18T08:39:47.422Z,-4.90
2022-12-18T08:42:32.724Z,-4.80
2022-12-18T08:44:59.586Z,-4.80
2022-12-18T08:47:27.100Z,-4.80
2022-12-18T08:49:53.970Z,-4.80
2022-12-18T08:52:20.836Z,-4.80
2022-12-18T08:54:47.722Z,-4.80
2022-12-18T08:57:14.511Z,-4.70
2022-12-18T08:59:41.334Z,-4.60
2022-12-18T09:02:11.555Z,-4.60
2022-12-18T09:04:38.615Z,-4.70
2022-12-18T09:07:05.413Z,-4.60
2022-12-18T09:09:32.271Z,-4.70
2022-12-18T09:11:59.043Z,-4.60
2022-12-18T09:14:25.859Z,-4.70
2022-12-18T09:16:52.700Z,-4.70
2022-12-18T09:19:19.537Z,-4.60
2022-12-18T09:21:48.243Z,-4.60
2022-12-18T09:24:16.332Z,-4.60
2022-12-18T09:26:46.922Z,-4.50
2022-12-18T09:29:15.584Z,-4.50
2022-12-18T09:31:43.286Z,-4.50
2022-12-18T09:34:10.124Z,-4.50
2022-12-18T09:36:36.955Z,-4.40
2022-12-18T09:39:08.156Z,-4.40
2022-12-18T09:41:46.690Z,-4.40
2022-12-18T09:44:22.362Z,-4.20
2022-12-18T09:46:57.021Z,-4.30
2022-12-18T09:49:27.620Z,-4.30
2022-12-18T09:52:02.875Z,-4.30
2022-12-18T09:54:44.546Z,-4.30
2022-12-18T09:57:16.655Z,-4.20
2022-12-18T09:59:47.607Z,-4.20
2022-12-18T10:02:22.279Z,-4.20
2022-12-18T10:05:18.064Z,-4.20
2022-12-18T10:08:12.276Z,-4.20
2022-12-18T10:10:53.417Z,-4.30
2022-12-18T10:13:33.329Z,-4.20
2022-12-18T10:16:32.016Z,-4.30
2022-12-18T10:19:23.417Z,-4.50
2022-12-18T10:22:02.162Z,-4.40
2022-12-18T10:24:40.152Z,-4.30
2022-12-18T10:27:18.801Z,-4.20
2022-12-18T10:29:46.814Z,-4.30
2022-12-18T10:32:22.250Z,-4.30
2022-12-18T10:34:54.167Z,-4.30
2022-12-18T10:37:27.785Z,-4.20
2022-12-18T10:40:14.185Z,-4.20
2022-12-18T10:42:45.050Z,-4.20
2022-12-18T10:45:15.530Z,-4.00
2022-12-18T10:47:49.439Z,-4.10
2022-12-18T10:51:08.629Z,-4.20
2022-12-18T10:53:26.345Z,-4.20
2022-12-18T10:56:02.839Z,-4.00
2022-12-18T10:58:32.330Z,-4.00
2022-12-18T11:01:09.668Z,-4.10
2022-12-18T11:03:39.918Z,-3.90
2022-12-18T11:06:17.472Z,-4.00
2022-12-18T11:08:58.480Z,-4.00
2022-12-18T11:11:26.391Z,-4.00
2022-12-18T11:14:04.453Z,-4.00
2022-12-18T11:19:42.010Z,-3.80
2022-12-18T11:22:29.014Z,-3.70
2022-12-18T11:25:36.397Z,-3.60
2022-12-18T11:28:45.747Z,-3.60
2022-12-18T11:31:29.334Z,-3.60
2022-12-18T11:34:31.325Z,-3.60
2022-12-18T11:37:00.926Z,-3.80
2022-12-18T11:40:06.644Z,-3.40
2022-12-18T11:42:47.224Z,-3.50
2022-12-18T11:45:14.119Z,-3.50
2022-12-18T11:47:53.371Z,-3.40
2022-12-18T11:50:25.871Z,-3.50
2022-12-18T11:52:57.375Z,-3.60
2022-12-18T11:55:31.595Z,-3.50
2022-12-18T11:57:58.347Z,-3.60
2022-12-18T12:00:25.344Z,-3.70
2022-12-18T12:03:04.314Z,-3.60
2022-12-18T12:05:55.309Z,-3.70
2022-12-18T12:08:35.227Z,-3.70
2022-12-18T12:11:17.194Z,-3.50
2022-12-18T12:14:14.993Z,-3.50
2022-12-18T12:16:51.056Z,-3.50
2022-12-18T12:19:35.973Z,-3.50
2022-12-18T12:22:14.336Z,-3.60
2022-12-18T12:24:53.232Z,-3.70
2022-12-18T12:27:28.663Z,-3.80
2022-12-18T12:30:10.357Z,-4.00
2022-12-18T12:33:05.363Z,-4.00
2022-12-18T12:35:59.833Z,-4.10
2022-12-18T12:38:34.085Z,-4.00
2022-12-18T12:41:04.576Z,-4.00
2022-12-18T12:43:50.638Z,-4.00
2022-12-18T12:46:22.247Z,-4.10
2022-12-18T12:49:03.160Z,-4.20
2022-12-18T12:51:35.886Z,-4.20
2022-12-18T12:54:06.376Z,-4.20
2022-12-18T12:57:12.116Z,-4.20
2022-12-18T13:00:20.252Z,-4.20
2022-12-18T13:03:09.462Z,-4.00
2022-12-18T13:05:57.406Z,-4.10
2022-12-18T13:08:34.225Z,-4.10
2022-12-18T13:11:22.274Z,-4.10
2022-12-18T13:13:55.600Z,-4.10
2022-12-18T13:16:26.856Z,-4.10
2022-12-18T13:18:59.739Z,-3.90
2022-12-18T13:21:32.022Z,-3.90
2022-12-18T13:24:28.882Z,-3.80
2022-12-18T13:26:56.238Z,-3.70
2022-12-18T13:29:44.531Z,-3.90
2022-12-18T13:32:26.168Z,-4.10
2022-12-18T13:35:38.732Z,-4.20
2022-12-18T13:38:21.520Z,-4.20
2022-12-18T13:40:48.456Z,-4.10
2022-12-18T13:43:21.377Z,-4.10
2022-12-18T13:46:07.209Z,-4.00
2022-12-18T13:48:39.096Z,-4.00
2022-12-18T13:51:11.811Z,-4.10
2022-12-18T13:53:52.038Z,-4.20
2022-12-18T13:56:22.550Z,-4.20
2022-12-18T13:59:27.214Z,-4.40
2022-12-18T14:01:58.332Z,-4.50
2022-12-18T14:04:25.347Z,-4.50
2022-12-18T14:06:57.447Z,-4.50
2022-12-18T14:09:29.037Z,-4.50
2022-12-18T14:12:16.518Z,-4.60
2022-12-18T14:14:47.359Z,-4.70
2022-12-18T14:17:16.230Z,-4.80
2022-12-18T14:19:50.981Z,-4.70
2022-12-18T14:22:28.717Z,-4.70
2022-12-18T14:25:14.027Z,-4.70
2022-12-18T14:27:52.705Z,-4.60
2022-12-18T14:30:26.846Z,-4.60
2022-12-18T14:33:10.207Z,-4.60
2022-12-18T14:35:40.568Z,-4.50
2022-12-18T14:38:36.342Z,-4.50
2022-12-18T14:41:03.174Z,-4.60
2022-12-18T14:43:33.799Z,-4.50
2022-12-18T14:46:01.841Z,-4.40
2022-12-18T14:48:43.599Z,-4.40
2022-12-18T14:51:23.740Z,-4.60
2022-12-18T14:53:59.468Z,-4.60
2022-12-18T14:56:26.224Z,-4.70
2022-12-18T14:59:05.736Z,-4.70
2022-12-18T15:01:46.536Z,-4.60
2022-12-18T15:04:36.349Z,-4.70
2022-12-18T15:07:17.377Z,-4.70
2022-12-18T15:10:02.605Z,-4.80
2022-12-18T15:12:34.444Z,-4.80
2022-12-18T15:15:01.282Z,-5.00
2022-12-18T15:17:28.388Z,-5.00
2022-12-18T15:20:02.862Z,-5.00
2022-12-18T15:22:36.826Z,-5.10
2022-12-18T15:25:24.179Z,-5.00
2022-12-18T15:27:51.077Z,-5.10
2022-12-18T15:30:21.145Z,-5.00
2022-12-18T15:32:49.856Z,-5.00
2022-12-18T15:35:25.352Z,-5.00
2022-12-18T15:37:53.422Z,-5.00
2022-12-18T15:40:24.954Z,-5.00
2022-12-18T15:43:13.497Z,-5.00
2022-12-18T15:45:40.505Z,-5.00
2022-12-18T15:48:23.963Z,-4.90
2022-12-18T15:50:57.720Z,-4.90
2022-12-18T15:53:26.236Z,-4.90
2022-12-18T15:56:11.857Z,-5.00
2022-12-18T15:58:39.150Z,-5.00
2022-12-18T16:01:06.233Z,-5.00
2022-12-18T16:03:33.142Z,-5.00
2022-12-18T16:06:02.956Z,-5.10
2022-12-18T16:08:31.404Z,-5.10
2022-12-18T16:10:59.303Z,-5.10
2022-12-18T16:13:26.129Z,-5.10
2022-12-18T16:15:53.068Z,-5.10
2022-12-18T16:18:20.276Z,-5.10
2022-12-18T16:20:47.176Z,-5.20
2022-12-18T16:23:14.063Z,-5.10
2022-12-18T16:25:40.876Z,-5.10
2022-12-18T16:28:08.899Z,-5.20
2022-12-18T16:30:38.660Z,-5.20
2022-12-18T16:33:07.671Z,-5.20
2022-12-18T16:35:35.314Z,-5.20
2022-12-18T16:38:02.117Z,-5.20
2022-12-18T16:40:29.006Z,-5.20
2022-12-18T16:42:55.797Z,-5.10
2022-12-18T16:45:22.637Z,-5.10
2022-12-18T16:47:50.247Z,-5.10
2022-12-18T16:50:17.074Z,-5.00
2022-12-18T16:52:44.001Z,-5.00
2022-12-18T16:55:10.969Z,-5.00
2022-12-18T16:57:37.836Z,-5.00
2022-12-18T17:00:06.161Z,-5.00
2022-12-18T17:02:33.890Z,-4.90
2022-12-18T17:05:01.185Z,-4.90
2022-12-18T17:07:28.906Z,-4.90
2022-12-18T17:09:55.922Z,-4.80
2022-12-18T17:12:23.572Z,-4.80
2022-12-18T17:14:50.555Z,-4.80
2022-12-18T17:17:22.185Z,-4.80
2022-12-18T17:19:50.686Z,-4.80
2022-12-18T17:22:17.835Z,-4.90
2022-12-18T17:24:44.715Z,-4.80
2022-12-18T17:27:11.551Z,-4.90
2022-12-18T17:29:41.329Z,-5.00
2022-12-18T17:32:13.878Z,-5.00
2022-12-18T17:34:40.985Z,-5.00
2022-12-18T17:37:08.394Z,-4.90
2022-12-18T17:39:35.285Z,-4.90
2022-12-18T17:42:02.106Z,-4.90
2022-12-18T17:44:28.959Z,-4.90
2022-12-18T17:46:56.217Z,-5.00
2022-12-18T17:49:23.075Z,-5.00
2022-12-18T17:51:50.052Z,-5.10
2022-12-18T17:54:16.921Z,-5.10
2022-12-18T17:56:44.661Z,-5.10
2022-12-18T17:59:12.483Z,-5.20
2022-12-18T18:01:44.324Z,-5.20
2022-12-18T18:04:12.795Z,-5.20
2022-12-18T18:06:39.809Z,-5.10
2022-12-18T18:09:08.187Z,-5.10
2022-12-18T18:12:01.528Z,-5.10
2022-12-18T18:14:28.498Z,-5.20
2022-12-18T18:16:55.366Z,-5.10
2022-12-18T18:19:24.985Z,-5.00
2022-12-18T18:21:53.682Z,-5.10
2022-12-18T18:24:23.667Z,-5.10
2022-12-18T18:26:50.662Z,-5.10
2022-12-18T18:29:27.854Z,-5.20
2022-12-18T18:31:56.237Z,-5.30
2022-12-18T18:34:31.884Z,-5.30
2022-12-18T18:36:59.212Z,-5.40
2022-12-18T18:39:26.711Z,-5.30
2022-12-18T18:41:53.867Z,-5.30
2022-12-18T18:44:23.426Z,-5.20
2022-12-18T18:46:57.175Z,-5.20
2022-12-18T18:49:27.155Z,-5.20
2022-12-18T18:51:57.389Z,-5.20
2022-12-18T18:54:25.562Z,-5.30
2022-12-18T18:59:39.336Z,-5.30
2022-12-18T19:02:09.045Z,-5.30
2022-12-18T19:04:36.630Z,-5.30
2022-12-18T19:07:12.773Z,-5.40
2022-12-18T19:09:41.307Z,-5.40
2022-12-18T19:12:26.825Z,-5.40
2022-12-18T19:14:54.760Z,-5.40
2022-12-18T19:17:24.939Z,-5.40
2022-12-18T19:19:56.252Z,-5.40
2022-12-18T19:22:23.930Z,-5.40
2022-12-18T19:24:50.720Z,-5.40
2022-12-18T19:27:17.543Z,-5.40
2022-12-18T19:29:44.316Z,-5.40
2022-12-18T19:32:11.295Z,-5.40
2022-12-18T19:34:39.152Z,-5.50
2022-12-18T19:37:06.137Z,-5.50
2022-12-18T19:39:32.993Z,-5.60
2022-12-18T19:41:59.808Z,-5.60
2022-12-18T19:44:26.832Z,-5.60
2022-12-18T19:46:53.679Z,-5.70
2022-12-18T19:49:21.997Z,-5.70
2022-12-18T19:51:50.364Z,-5.60
2022-12-18T19:54:17.850Z,-5.70
2022-12-18T19:56:45.638Z,-5.70
2022-12-18T19:59:13.191Z,-5.70
2022-12-18T20:01:40.787Z,-5.70
2022-12-18T20:04:08.106Z,-5.60
2022-12-18T20:06:47.679Z,-5.70
2022-12-18T20:09:15.083Z,-5.60
2022-12-18T20:11:42.724Z,-5.60
2022-12-18T20:14:14.694Z,-5.60
2022-12-18T20:16:46.411Z,-5.60
2022-12-18T20:19:14.308Z,-5.60
2022-12-18T20:21:42.649Z,-5.60
2022-12-18T20:24:09.586Z,-5.60
2022-12-18T20:26:36.412Z,-5.50
2022-12-18T20:29:03.266Z,-5.50
2022-12-18T20:31:30.530Z,-5.50
2022-12-18T20:34:00.261Z,-5.60
2022-12-18T20:36:29.562Z,-5.50
2022-12-18T20:38:59.188Z,-5.50
2022-12-18T20:41:37.353Z,-5.50
2022-12-18T20:44:10.261Z,-5.40
2022-12-18T20:46:50.459Z,-5.50
2022-12-18T20:49:17.309Z,-5.50
2022-12-18T20:51:44.194Z,-5.50
2022-12-18T20:54:11.980Z,-5.50
2022-12-18T20:56:39.054Z,-5.50
2022-12-18T20:59:05.886Z,-5.50
2022-12-18T21:01:32.838Z,-5.50
2022-12-18T21:04:00.690Z,-5.50
2022-12-18T21:06:27.615Z,-5.50
2022-12-18T21:08:54.491Z,-5.50
2022-12-18T21:11:39.747Z,-5.50
2022-12-18T21:14:09.526Z,-5.50
2022-12-18T21:16:36.601Z,-5.40
2022-12-18T21:19:03.640Z,-5.40
2022-12-18T21:21:30.556Z,-5.40
2022-12-18T21:24:04.370Z,-5.40
2022-12-18T21:26:31.939Z,-5.40
2022-12-18T21:29:02.396Z,-5.40
2022-12-18T21:31:32.449Z,-5.40
2022-12-18T21:34:01.860Z,-5.40
2022-12-18T21:36:29.951Z,-5.40
2022-12-18T21:38:57.418Z,-5.40
2022-12-18T21:41:44.668Z,-5.30
2022-12-18T21:44:14.733Z,-5.30
2022-12-18T21:46:44.195Z,-5.30
2022-12-18T21:49:12.620Z,-5.30
2022-12-18T21:51:39.479Z,-5.40
2022-12-18T21:54:06.931Z,-5.40
2022-12-18T21:56:51.382Z,-5.40
2022-12-18T21:59:32.998Z,-5.50
2022-12-18T22:02:03.235Z,-5.50
2022-12-18T22:04:30.416Z,-5.60
2022-12-18T22:07:01.343Z,-5.50
2022-12-18T22:09:28.196Z,-5.60
2022-12-18T22:11:54.998Z,-5.50
2022-12-18T22:14:23.183Z,-5.50
2022-12-18T22:16:50.920Z,-5.50
2022-12-18T22:19:19.792Z,-5.50
2022-12-18T22:21:49.102Z,-5.50
2022-12-18T22:24:18.567Z,-5.50
2022-12-18T22:26:47.085Z,-5.60
2022-12-18T22:29:41.071Z,-5.50
2022-12-18T22:32:15.768Z,-5.50
2022-12-18T22:34:43.538Z,-5.50
2022-12-18T22:37:12.220Z,-5.50
2022-12-18T22:39:39.269Z,-5.50
2022-12-18T22:42:06.845Z,-5.50
2022-12-18T22:44:33.675Z,-5.40
2022-12-18T22:47:06.949Z,-5.40
2022-12-18T22:49:35.489Z,-5.40
2022-12-18T22:52:04.106Z,-5.30
2022-12-18T22:54:30.978Z,-5.30
2022-12-18T22:56:58.033Z,-5.30
2022-12-18T22:59:25.102Z,-5.40
2022-12-18T23:01:54.240Z,-5.40
2022-12-18T23:04:31.294Z,-5.50
2022-12-18T23:07:06.265Z,-5.50
2022-12-18T23:09:33.527Z,-5.50
2022-12-18T23:12:00.407Z,-5.60
2022-12-18T23:14:27.841Z,-5.50
2022-12-18T23:16:54.751Z,-5.50
2022-12-18T23:19:23.724Z,-5.50
2022-12-18T23:21:51.257Z,-5.50
2022-12-18T23:24:18.353Z,-5.50
2022-12-18T23:26:45.196Z,-5.50
2022-12-18T23:29:12.011Z,-5.50
2022-12-18T23:31:40.234Z,-5.50
2022-12-18T23:34:08.141Z,-5.40
2022-12-18T23:36:45.426Z,-5.40
2022-12-18T23:39:28.544Z,-5.40
2022-12-18T23:41:56.527Z,-5.40
2022-12-18T23:44:23.448Z,-5.40
2022-12-18T23:46:50.401Z,-5.40
2022-12-18T23:49:17.255Z,-5.40
2022-12-18T23:51:44.074Z,-5.40
2022-12-18T23:54:11.117Z,-5.40
2022-12-18T23:56:37.962Z,-5.40
2022-12-18T23:59:05.026Z,-5.30
